• Join FlightAware (Why Join?)
  • Login
  • US Flag 
08:37AM EDT


 

Airport Tracker/Info


-or-


 

Live Flight TrackerFlight Track Log ✈ N6045S ✈ 21-Jun-2013 ✈ KBHB - KHPN

Flight Track Log - Related Links

Times and Time Zones

All times are in EDT time to prevent confusion due to time zone crossing. See the N6045S flight status page for this flight to view local times or setup timezone preferences in your user account.

Time Position Orientation Groundspeed Altitude Reporting Facility
EDT Latitude Longitude Course Direction KTS MPH feet Rate Location/Type
01:35PM 43.0964 -70.6117 231° Southwest 240 276 12,500  Level Boston Center
01:36PM 43.0497 -70.6842 229° Southwest 234 269 13,300 600 Climbing Boston Center
01:37PM 43.0172 -70.7392 231° Southwest 229 264 13,800 420 Climbing Boston Center
01:38PM 42.9744 -70.8083 230° Southwest 223 257 14,200 300 Climbing Boston Center
01:39PM 42.9378 -70.8661 229° Southwest 223 257 14,500 120 Climbing Boston Center
01:40PM 42.8908 -70.9408 229° Southwest 231 266 14,500  Level Boston Center
01:41PM 43.7133 -69.6119 231° Southwest  Level Estimated
01:41PM 42.8519 -71.0042 230° Southwest 237 273 14,500  Level Boston Center
01:42PM 42.8028 -71.0761 227° Southwest 237 273 14,500  Level Boston Center
01:43PM 42.7497 -71.1622 230° Southwest 242 278 14,500  Level Boston Center
01:44PM 42.7086 -71.2308 231° Southwest 242 278 14,500  Level Boston Center
01:45PM 42.6636 -71.2994 228° Southwest 242 278 14,500  Level Boston Center
01:46PM 42.6206 -71.3681 230° Southwest 242 278 14,500  Level Boston Center
01:47PM 42.5772 -71.4364 229° Southwest 242 278 14,500  Level Boston Center
01:48PM 42.5342 -71.5047 229° Southwest 242 278 14,500  Level Boston Center
01:49PM 42.4889 -71.5728 228° Southwest 237 273 14,500  Level Boston Center
01:50PM 42.4456 -71.6411 229° Southwest 237 273 14,500  Level Boston Center
01:51PM 42.4000 -71.7092 228° Southwest 242 278 14,500  Level Boston Center
01:52PM 42.3567 -71.7769 229° Southwest 242 278 14,500  Level Boston Center
01:53PM 42.3114 -71.8450 228° Southwest 237 273 14,500  Level Boston Center
01:54PM 42.2658 -71.9156 229° Southwest 244 281 14,500  Level Boston Center
01:55PM 42.2264 -71.9775 229° Southwest 249 287 14,500  Level Boston Center
01:56PM 42.1789 -72.0506 229° Southwest 244 281 14,500  Level Boston Center
01:58PM 42.1394 -72.1125 229° Southwest 244 281 14,500  Level Boston Center
01:59PM 42.0833 -72.1967 228° Southwest 239 275 14,500  Level Boston Center
02:00PM 42.0500 -72.2725 239° Southwest 239 275 14,500  Level Boston Center
02:01PM 42.0211 -72.3450 242° Southwest 234 269 14,500  Level Boston Center
02:02PM 41.9897 -72.4233 242° Southwest 228 262 14,500  Level Boston Center
02:03PM 41.9606 -72.4958 242° Southwest 228 262 14,500  Level Boston Center
02:04PM 41.9253 -72.5656 236° Southwest 228 262 14,500  Level Boston Center
02:05PM 41.8897 -72.6408 238° Southwest 234 269 14,500  Level Boston Center
02:06PM 41.8417 -72.7019 223° Southwest 241 277 14,500  Level Boston Center
02:07PM 41.8039 -72.7519 225° Southwest 241 277 14,500  Level Boston Center
02:08PM 41.7536 -72.8214 226° Southwest 241 277 14,500 -240 Level Boston Center
02:09PM 41.7014 -72.8878 224° Southwest 247 284 14,100 -780 Descending Boston Center
02:10PM 41.6167 -72.9833 220° Southwest 265 305 12,600 -960 Descending New York TRACON
02:11PM 41.5667 -73.0500 225° Southwest 254 292 11,700 -1,080 Descending New York TRACON
02:12PM 41.5167 -73.1167 225° Southwest 258 297 10,500 -1,200 Descending New York TRACON
02:13PM 41.4667 -73.1833 225° Southwest 254 292 9,500 -1,200 Descending New York TRACON
02:14PM 41.4167 -73.2667 231° Southwest 247 284 8,200 -1,200 Descending New York TRACON
02:15PM 41.3833 -73.3333 236° Southwest 246 283 7,100 -1,140 Descending New York TRACON
02:16PM 41.3333 -73.4000 225° Southwest 246 283 6,000 -780 Descending New York TRACON
02:17PM 41.2833 -73.4667 225° Southwest 225 259 5,600 -480 Descending New York TRACON
02:18PM 41.2500 -73.5167 228° Southwest 221 254 5,100 -780 Descending New York TRACON
02:19PM 41.2000 -73.5667 217° Southwest 218 251 4,200 -900 Descending New York TRACON
02:20PM 41.1667 -73.6167 228° Southwest 211 243 3,400 -780 Descending New York TRACON
02:21PM 41.1500 -73.6833 252° West 200 230 2,700 -600 Descending New York TRACON
02:22PM 41.1333 -73.7500 252° West 145 167 2,200 -780 Descending New York TRACON
02:23PM 41.1000 -73.7333 159° South 118 136 1,200 -1,020 Descending New York TRACON
02:25PM 41.0667 -73.7000 236° Southwest  Level FlightAware Approximate
02:32PM 41.0669 -73.7076 236° Southwest  Level Estimated
02:33PM 41.0667 -73.7000 236° Southwest  Level FlightAware Approximate
02:34PM 41.0669 -73.7076 236° Southwest  Level Estimated